Picacho, New Mexico
Current Conditions -  °F | °C
As of 11:51 PM on Wednesday 22 Oct 2014 (Local Time) from KROW Reporting Station
Clear Clear  
Wind Chill: 59°   Ceiling: Unl
Heat Index: 59°   Visibility: 7mi
Dew Point: 57°   Wind: 7mph
Humidity: 93%   Direction: 170°S
Pressure: 30.11"   Gusts: NA
Location:  33.41°N, 105.01°W
Report Text: KROW 230551Z AUTO 17006KT 7SM CLR 15/14 A3011 RMK AO2 SLP151 T01500139 10217 20144 50004
Loading
Personal Weather Stations






























Interactive Weather Map New forecast layout! Learn more

10-Day Weather Forecast

Advertisements
Track Severe Weather on mobile